Talbot, Indiana
Current Conditions -  °F | °C
As of 7:35 AM on Friday 31 Oct 2014 (Local Time) from KDNV Reporting Station
Overcast Overcast  
Wind Chill: 32°   Ceiling: 1400
Heat Index: 41°   Visibility: 10mi
Dew Point: 37°   Wind: 20mph
Humidity: 83%   Direction: 330°NNW
Pressure: 30.02"   Gusts: 29mph
Location:  40.51°N, 87.45°W
Report Text: KDNV 311135Z AUTO 33017G25KT 10SM BKN014 OVC021 05/03 A3002 RMK AO2 T00510025
Loading
Personal Weather Stations






























Interactive Weather Map
Tropical Storm Tracking
New forecast layout! Learn more

10-Day Weather Forecast

Advertisements
Track Severe Weather on mobile